Latest Weather Observations for Cape Wessel

IDD60801

Issued at 12:51 pm CST Sunday 29 January 2023 (issued every 10 minutes, with the page automatically refreshed every 10 minutes)

About weather observations | Map of weather stations | Latest weather observations for NT | Other Formats
Station Details ID: 200786 Name: CAPE WESSEL Lat: -11.00 Lon: 136.76 Height: 18.0 m
Data from the previous 72 hours. | See also: Recent months at Cape Wessel
Date/Time
CST
Temp
°C
App
Temp
°C
Dew
Point
°C
Rel
Hum
%
Delta-T
°C
Wind Press
QNH
hPa
Press
MSL
hPa
Rain since
9am
mm
Dir  Spd
km/h
Gust
km/h
Spd
kts
Gust
kts
29/12:30pm 31.1 34.9 25.9 74 3.7 NNE 17 20 9 11 1006.2 1006.1 0.0
29/12:00pm 31.0 34.3 25.1 71 4.2 NNE 17 20 9 11 1006.7 1006.6 0.0
29/11:30am 29.9 34.1 25.4 77 3.2 NNE 13 17 7 9 1007.4 1007.3 0.0
29/11:00am 29.1 32.6 24.9 78 2.9 NNE 15 22 8 12 1007.8 1007.7 0.0
29/10:30am 29.8 33.7 24.9 75 3.4 N 13 17 7 9 1008.1 1008.0 0.0
29/10:00am 28.9 33.2 24.9 79 2.8 N 11 15 6 8 1008.5 1008.4 0.0
29/09:30am 28.8 33.4 25.4 82 2.4 N 11 15 6 8 1008.6 1008.5 0.0
29/09:00am 28.4 32.9 25.2 83 2.3 N 11 13 6 7 1008.6 1008.5 8.2
29/08:30am 27.9 32.8 25.3 86 1.8 N 9 13 5 7 1008.4 1008.3 8.2
29/08:00am 27.1 32.0 25.3 90 1.3 NNE 9 11 5 6 1008.2 1008.1 8.2
29/07:30am 26.3 31.6 25.8 97 0.4 N 9 11 5 6 1007.7 1007.6 8.2
29/07:00am 25.7 31.1 25.4 98 0.2 NNE 7 9 4 5 1006.9 1006.8 8.2
29/06:30am 24.6 30.5 24.1 97 0.3 CALM 0 0 0 0 1006.4 1006.3 8.2
29/06:00am 24.3 30.0 23.8 97 0.3 CALM 0 0 0 0 1005.9 1005.8 8.2
29/05:30am 24.4 30.1 23.7 96 0.5 CALM 0 0 0 0 1005.7 1005.6 8.2
29/05:00am 24.7 30.5 24.0 96 0.5 CALM 0 0 0 0 1005.2 1005.1 8.2
29/04:30am 24.6 30.4 23.9 96 0.5 CALM 0 0 0 0 1005.1 1005.0 8.2
29/04:00am 24.7 30.5 24.0 96 0.5 CALM 0 0 0 0 1005.1 1005.0 8.2
29/03:30am 24.7 30.5 24.0 96 0.5 CALM 0 0 0 0 1005.1 1005.0 8.2
29/03:00am 24.9 29.7 24.2 96 0.5 ENE 6 7 3 4 1005.1 1005.0 8.2
29/02:30am 24.8 29.9 24.1 96 0.5 SW 4 7 2 4 1005.0 1004.9 8.2
29/02:00am 24.7 30.4 23.8 95 0.6 CALM 0 0 0 0 1005.3 1005.2 8.2
29/01:30am 25.0 30.8 24.0 94 0.7 CALM 0 0 0 0 1005.7 1005.6 8.2
29/01:00am 25.3 30.8 24.1 93 0.8 WSW 2 6 1 3 1006.1 1006.0 8.2
29/12:30am 25.8 30.3 24.6 93 0.8 WSW 9 11 5 6 1006.5 1006.4 8.2
29/12:00am 25.9 29.7 24.7 93 0.8 W 13 15 7 8 1006.6 1006.5 8.2
 
Date/Time
CST
Temp
°C
App
Temp
°C
Dew
Point
°C
Rel
Hum
%
Delta-T
°C
Wind Press
QNH
hPa
Press
MSL
hPa
Rain since
9am
mm
Dir  Spd
km/h
Gust
km/h
Spd
kts
Gust
kts
28/11:30pm 25.7 29.9 24.7 94 0.7 W 11 15 6 8 1006.8 1006.7 8.2
28/11:00pm 25.7 29.7 25.0 96 0.5 WNW 13 15 7 8 1006.9 1006.8 8.2
28/10:30pm 25.4 29.7 24.9 97 0.3 WNW 11 15 6 8 1006.6 1006.5 8.2
28/10:00pm 25.3 29.9 24.8 97 0.3 WNW 9 13 5 7 1006.3 1006.2 8.2
28/09:30pm 25.0 30.0 24.5 97 0.3 WSW 6 9 3 5 1006.0 1005.9 8.2
28/09:00pm 25.1 30.0 24.6 97 0.3 W 7 9 4 5 1005.5 1005.4 8.2
28/08:30pm 24.9 29.7 24.2 96 0.5 SW 6 9 3 5 1005.4 1005.3 8.2
28/08:00pm 25.0 29.7 24.3 96 0.5 WNW 7 11 4 6 1005.5 1005.4 8.2
28/07:30pm 25.1 29.5 24.4 96 0.5 NW 9 11 5 6 1005.3 1005.2 8.2
28/07:00pm 25.3 28.9 24.4 95 0.6 WNW 13 15 7 8 1005.2 1005.1 7.6
28/06:30pm 25.4 28.3 24.4 94 0.7 NW 17 20 9 11 1004.9 1004.8 7.2
28/06:00pm 25.6 29.4 24.7 95 0.6 NW 13 20 7 11 1004.4 1004.3 7.2
28/05:30pm 25.8 29.3 24.9 95 0.6 NW 15 20 8 11 1004.1 1004.0 7.2
28/05:00pm 25.5 29.2 24.6 95 0.6 NNW 13 19 7 10 1003.8 1003.7 7.2
28/04:30pm 25.7 29.9 24.8 95 0.6 NW 11 15 6 8 1003.7 1003.6 7.2
28/04:00pm 25.9 30.6 24.9 94 0.7 NW 9 11 5 6 1003.7 1003.6 6.8
28/03:30pm 25.6 30.5 24.6 94 0.7 NNW 7 9 4 5 1004.1 1004.0 6.6
28/03:00pm 25.6 30.1 24.6 94 0.7 N 9 13 5 7 1004.4 1004.3 6.2
28/02:30pm 25.5 29.3 24.1 92 1.0 N 11 17 6 9 1005.1 1005.0 5.2
28/02:00pm 26.0 30.4 24.4 91 1.1 N 9 13 5 7 1005.3 1005.2 4.6
28/01:30pm 26.2 30.8 24.2 89 1.4 NNE 7 9 4 5 1005.5 1005.4 4.4
28/01:00pm 26.1 30.8 24.3 90 1.2 NNE 7 9 4 5 1006.0 1005.9 4.4
28/12:30pm 26.3 31.4 24.7 91 1.1 N 6 9 3 5 1006.2 1006.1 4.4
28/12:00pm 26.3 31.8 24.7 91 1.1 N 4 7 2 4 1006.3 1006.2 4.2
28/11:30am 25.7 31.5 23.9 90 1.2 CALM 0 0 0 0 1006.4 1006.3 3.8
28/11:00am 25.7 30.8 24.7 94 0.7 W 6 11 3 6 1006.7 1006.6 2.6
28/10:30am 25.3 29.6 24.3 94 0.7 SW 9 13 5 7 1006.7 1006.6 2.0
28/10:00am 25.3 26.6 23.4 89 1.3 SSW 22 30 12 16 1006.5 1006.4 0.8
28/09:30am 28.3 33.4 25.5 85 2.0 WNW 9 13 5 7 1006.7 1006.6 0.0
28/09:00am 28.3 33.6 25.3 84 2.1 WNW 7 9 4 5 1006.8 1006.7 12.4
28/08:30am 28.3 34.1 26.1 88 1.6 WNW 7 9 4 5 1006.5 1006.4 12.4
28/08:00am 27.6 33.2 25.8 90 1.3 W 7 9 4 5 1006.1 1006.0 12.4
28/07:30am 27.0 31.6 24.8 88 1.5 W 9 11 5 6 1006.0 1005.9 12.4
28/07:00am 26.3 29.8 23.6 85 1.8 WNW 11 13 6 7 1005.8 1005.7 12.4
28/06:30am 26.2 28.6 24.2 89 1.4 W 19 24 10 13 1005.6 1005.5 12.4
28/06:00am 26.5 31.3 25.1 92 1.0 WNW 9 11 5 6 1005.0 1004.9 12.4
28/05:30am 26.4 31.0 24.8 91 1.1 WNW 9 11 5 6 1004.8 1004.7 12.4
28/05:00am 26.3 30.9 24.7 91 1.1 NW 9 11 5 6 1004.5 1004.4 12.4
28/04:30am 26.1 30.5 24.5 91 1.1 NW 9 11 5 6 1003.9 1003.8 12.4
28/04:00am 26.1 31.2 24.9 93 0.8 NW 7 9 4 5 1003.8 1003.7 12.4
28/03:30am 26.1 30.9 25.1 94 0.7 W 9 11 5 6 1004.0 1003.9 12.4
28/03:00am 25.9 31.2 25.0 95 0.6 SW 6 9 3 5 1004.4 1004.3 12.4
28/02:30am 25.9 31.3 25.2 96 0.5 SSW 6 6 3 3 1004.5 1004.4 12.4
28/02:00am 26.0 31.5 25.3 96 0.5 SSW 6 6 3 3 1004.8 1004.7 12.4
28/01:30am 26.2 31.8 25.5 96 0.5 SSW 6 7 3 4 1004.8 1004.7 12.4
28/01:00am 25.9 31.2 25.2 96 0.5 SSW 7 9 4 5 1005.0 1004.9 12.4
28/12:30am 25.9 31.2 25.2 96 0.5 SSW 7 9 4 5 1005.1 1005.0 12.4
28/12:00am 25.8 30.6 25.1 96 0.5 SSW 9 9 5 5 1005.4 1005.3 12.4
 
Date/Time
CST
Temp
°C
App
Temp
°C
Dew
Point
°C
Rel
Hum
%
Delta-T
°C
Wind Press
QNH
hPa
Press
MSL
hPa
Rain since
9am
mm
Dir  Spd
km/h
Gust
km/h
Spd
kts
Gust
kts
27/11:30pm 25.7 30.4 25.0 96 0.5 SSW 9 11 5 6 1005.5 1005.4 12.4
27/11:00pm 25.5 30.1 24.8 96 0.5 S 9 11 5 6 1005.5 1005.4 12.4
27/10:30pm 25.5 29.4 24.8 96 0.5 S 13 15 7 8 1005.5 1005.4 12.4
27/10:00pm 25.5 29.6 24.6 95 0.6 SSW 11 11 6 6 1005.4 1005.3 12.4
27/09:30pm 25.4 29.8 24.5 95 0.6 SSW 9 11 5 6 1005.6 1005.5 12.4
27/09:00pm 25.5 30.5 24.5 94 0.7 S 6 9 3 5 1005.7 1005.6 12.4
27/08:30pm 25.5 31.4 24.1 92 1.0 CALM 0 0 0 0 1005.5 1005.4 12.4
27/08:00pm 25.7 31.2 24.1 91 1.1 NNE 2 6 1 3 1005.5 1005.4 12.4
27/07:30pm 26.0 30.8 24.2 90 1.2 N 6 7 3 4 1005.3 1005.2 12.4
27/07:00pm 26.4 30.4 24.4 89 1.4 N 11 13 6 7 1005.2 1005.1 12.4
27/06:30pm 26.7 30.0 24.5 88 1.5 N 15 17 8 9 1005.4 1005.3 12.4
27/06:00pm 26.9 30.1 24.4 86 1.7 N 15 17 8 9 1005.4 1005.3 12.4
27/05:30pm 26.9 30.2 24.5 87 1.7 N 15 17 8 9 1005.5 1005.4 12.4
27/05:00pm 26.4 29.1 24.8 91 1.1 NNE 19 24 10 13 1005.3 1005.2 12.4
27/04:30pm 26.2 28.6 25.2 94 0.7 NNE 22 30 12 16 1005.4 1005.3 12.4
27/04:00pm 26.3 27.1 25.1 93 0.8 NNE 30 37 16 20 1005.3 1005.2 12.4
27/03:53pm 26.6 29.4 25.0 91 1.1 NNE 19 37 10 20 1005.3 1005.2 10.6
27/03:30pm 27.9 33.6 27.0 95 0.6 N 11 15 6 8 1005.4 1005.3 10.4
27/03:00pm 26.3 31.7 25.4 95 0.6 NNE 7 11 4 6 1005.6 1005.5 10.0
27/02:30pm 25.3 27.1 23.5 90 1.2 NNE 20 28 11 15 1005.8 1005.7 5.6
27/02:19pm 25.7 26.6 23.4 87 1.6 NNE 24 35 13 19 1005.8 1005.7 4.2
27/02:00pm 30.7 33.3 24.6 70 4.3 NE 19 32 10 17 1005.8 1005.7 0.0
27/01:30pm 32.4 37.6 25.7 68 4.8 E 9 15 5 8 1006.2 1006.1 0.0
27/01:00pm 32.1 36.7 25.4 67 4.8 ESE 11 13 6 7 1006.6 1006.5 0.0
27/12:30pm 32.2 37.4 26.3 71 4.2 ESE 11 15 6 8 1007.1 1007.0 0.0
27/12:00pm 31.2 35.5 25.5 71 4.0 ESE 13 15 7 8 1007.3 1007.2 0.0
27/11:30am 30.7 35.0 25.5 74 3.7 ESE 13 15 7 8 1007.8 1007.7 0.0
27/11:00am 31.4 36.2 25.7 71 4.1 ESE 11 15 6 8 1008.1 1008.0 0.0
27/10:30am 32.0 37.1 26.1 71 4.2 SE 11 15 6 8 1008.3 1008.2 0.0
27/10:00am 31.5 36.3 26.3 74 3.7 SE 13 15 7 8 1008.4 1008.3 0.0
27/09:30am 30.5 35.6 26.2 78 3.1 ESE 11 13 6 7 1008.6 1008.5 0.0
27/09:00am 29.7 35.3 26.3 82 2.4 SE 9 15 5 8 1008.8 1008.7 8.0
27/08:30am 28.8 34.7 26.2 86 1.9 SE 7 9 4 5 1008.5 1008.4 8.0
27/08:00am 27.5 33.5 26.1 92 1.0 SSE 6 7 3 4 1007.9 1007.8 8.0
27/07:30am 26.2 32.6 25.5 96 0.5 SSW 2 7 1 4 1007.7 1007.6 8.0
27/07:00am 25.7 31.0 25.0 96 0.5 SSW 6 6 3 3 1007.5 1007.4 8.0
27/06:30am 25.1 29.7 24.2 95 0.6 SSW 7 9 4 5 1007.3 1007.2 8.0
27/06:00am 25.3 27.8 24.4 95 0.6 E 19 24 10 13 1007.0 1006.9 7.8
27/05:30am 25.5 28.7 24.3 93 0.8 E 15 22 8 12 1007.0 1006.9 5.8
27/05:00am 25.0 26.8 23.2 90 1.2 SSE 19 26 10 14 1006.6 1006.5 5.6
27/04:30am 25.2 27.9 23.4 90 1.2 SE 15 19 8 10 1006.2 1006.1 5.4
27/04:09am 25.7 26.9 23.9 90 1.2 SSE 24 35 13 19 1006.0 1005.9 5.4
27/04:00am 26.6 31.6 25.4 93 0.8 S 9 13 5 7 1006.0 1005.9 5.4
27/03:30am 26.6 31.3 25.0 91 1.1 SSE 9 11 5 6 1006.1 1006.0 5.4
27/03:00am 26.5 29.2 24.2 87 1.6 SE 17 26 9 14 1006.3 1006.2 5.4
27/02:30am 27.0 31.4 25.0 89 1.4 ESE 11 15 6 8 1006.6 1006.5 5.4
27/02:00am 26.9 30.8 24.9 89 1.4 ESE 13 17 7 9 1006.6 1006.5 5.4
27/01:30am 26.9 30.8 24.9 89 1.4 ESE 13 15 7 8 1007.0 1006.9 5.4
27/01:00am 27.0 30.6 25.0 89 1.4 ESE 15 19 8 10 1007.2 1007.1 5.4
27/12:30am 27.0 31.1 25.2 90 1.3 ESE 13 17 7 9 1007.7 1007.6 5.4
27/12:00am 27.0 30.6 25.0 89 1.4 ESE 15 17 8 9 1007.8 1007.7 5.4
 
Date/Time
CST
Temp
°C
App
Temp
°C
Dew
Point
°C
Rel
Hum
%
Delta-T
°C
Wind Press
QNH
hPa
Press
MSL
hPa
Rain since
9am
mm
Dir  Spd
km/h
Gust
km/h
Spd
kts
Gust
kts
26/11:30pm 27.0 30.5 25.4 91 1.1 ESE 17 20 9 11 1008.0 1007.9 5.4
26/11:00pm 27.0 31.0 25.6 92 1.0 ESE 15 19 8 10 1008.0 1007.9 5.4
26/10:30pm 26.9 30.4 25.5 92 1.0 ESE 17 20 9 11 1008.1 1008.0 5.4
26/10:00pm 26.9 30.8 25.5 92 1.0 ESE 15 19 8 10 1008.1 1008.0 5.4
26/09:30pm 26.8 30.5 25.2 91 1.1 ESE 15 17 8 9 1007.8 1007.7 5.4
26/09:00pm 26.7 30.7 25.1 91 1.1 ESE 13 17 7 9 1007.3 1007.2 5.4
26/08:30pm 26.7 30.6 24.9 90 1.3 ESE 13 17 7 9 1007.0 1006.9 5.4
26/08:00pm 26.6 30.1 24.8 90 1.3 ESE 15 20 8 11 1006.8 1006.7 5.4
26/07:30pm 26.7 30.1 24.7 89 1.4 ESE 15 19 8 10 1006.7 1006.6 5.4
26/07:00pm 26.8 29.3 24.5 87 1.6 ESE 19 22 10 12 1006.6 1006.5 5.4
26/06:30pm 26.8 29.5 24.1 85 1.9 SE 17 20 9 11 1006.4 1006.3 5.4
26/06:00pm 27.0 29.5 24.5 86 1.7 SE 19 24 10 13 1005.9 1005.8 5.4
26/05:30pm 27.3 29.9 24.6 85 1.9 SE 19 24 10 13 1006.1 1006.0 5.4
26/05:00pm 27.3 30.5 24.9 87 1.7 SE 17 20 9 11 1006.2 1006.1 5.4
26/04:30pm 26.7 29.4 24.2 86 1.7 SSE 17 20 9 11 1006.2 1006.1 5.4
26/04:00pm 26.9 30.4 25.5 92 1.0 SSE 17 20 9 11 1006.2 1006.1 5.4
26/03:30pm 26.6 30.2 25.0 91 1.1 ESE 15 20 8 11 1006.5 1006.4 5.4
26/03:00pm 26.9 32.3 25.1 90 1.3 SE 6 7 3 4 1006.5 1006.4 5.4
26/02:30pm 26.9 31.9 24.5 87 1.7 ENE 6 6 3 3 1007.2 1007.1 5.2
26/02:00pm 27.6 32.7 24.0 81 2.5 NW 4 7 2 4 1007.8 1007.7 4.0
26/01:30pm 28.4 32.4 23.8 76 3.2 N 9 11 5 6 1008.0 1007.9 4.0
26/01:00pm 30.5 35.2 24.9 72 3.9 W 9 11 5 6 1008.3 1008.2 4.0

Other formats

Comma delimited format used in spreadsheet applications
http://www.bom.gov.au/fwo/IDD60801/IDD60801.94147.axf

JavaScript Object Notation format (JSON) in row-major order
http://www.bom.gov.au/fwo/IDD60801/IDD60801.94147.json

Data quality

Most of these data are generated automatically and are frequently updated. Quality checks on data are not normally performed. It is possible for incorrect values to appear. Refer to information at About Latest Weather Observations and please check the disclaimer before using these data.